createdAt,value
2018-06-03T00:00:04.121Z,54.70
2018-06-03T00:01:04.147Z,55.90
2018-06-03T00:02:04.172Z,55.50
2018-06-03T00:03:04.198Z,54.00
2018-06-03T00:04:04.211Z,52.40
2018-06-03T00:05:04.237Z,57.80
2018-06-03T00:06:04.277Z,52.10
2018-06-03T00:07:04.289Z,59.40
2018-06-03T00:08:04.316Z,54.90
2018-06-03T00:09:04.340Z,54.20
2018-06-03T00:10:04.357Z,58.00
2018-06-03T00:11:04.381Z,53.00
2018-06-03T00:12:04.406Z,55.30
2018-06-03T00:13:04.432Z,53.90
2018-06-03T00:14:04.462Z,54.30
2018-06-03T00:15:04.484Z,55.80
2018-06-03T00:16:04.511Z,59.90
2018-06-03T00:17:04.525Z,54.50
2018-06-03T00:18:04.548Z,53.70
2018-06-03T00:19:04.576Z,54.40
2018-06-03T00:20:04.601Z,57.30
2018-06-03T00:21:04.628Z,58.00
2018-06-03T00:22:04.655Z,59.30
2018-06-03T00:23:04.678Z,62.10
2018-06-03T00:24:04.692Z,58.20
2018-06-03T00:25:04.719Z,59.00
2018-06-03T00:26:04.744Z,62.60
2018-06-03T00:27:04.770Z,57.00
2018-06-03T00:28:04.797Z,59.40
2018-06-03T00:29:04.824Z,67.60
2018-06-03T00:30:04.836Z,63.10
2018-06-03T00:31:04.861Z,62.00
2018-06-03T00:32:04.887Z,67.30
2018-06-03T00:33:04.918Z,58.60
2018-06-03T00:34:04.944Z,67.10
2018-06-03T00:35:04.965Z,64.10
2018-06-03T00:36:04.990Z,66.40
2018-06-03T00:37:05.005Z,58.40
2018-06-03T00:38:05.034Z,60.40
2018-06-03T00:39:05.057Z,63.40
2018-06-03T00:40:05.082Z,64.90
2018-06-03T00:41:05.112Z,60.20
2018-06-03T00:42:05.163Z,62.80
2018-06-03T00:43:05.148Z,62.60
2018-06-03T00:44:05.175Z,62.70
2018-06-03T00:45:05.199Z,67.40
2018-06-03T00:46:05.226Z,64.20
2018-06-03T00:47:05.252Z,70.00
2018-06-03T00:48:05.280Z,56.80
2018-06-03T00:49:05.306Z,65.40
2018-06-03T00:50:05.318Z,63.90
2018-06-03T00:51:05.343Z,64.90
2018-06-03T00:52:05.368Z,63.40
2018-06-03T00:53:05.395Z,69.00
2018-06-03T00:54:05.420Z,60.50
2018-06-03T00:55:05.447Z,62.90
2018-06-03T00:56:05.461Z,62.30
2018-06-03T00:57:05.498Z,62.70
2018-06-03T00:58:05.511Z,68.30
2018-06-03T00:59:05.539Z,62.50
2018-06-03T01:00:05.564Z,64.70
2018-06-03T01:01:05.592Z,61.90
2018-06-03T01:02:05.614Z,63.80
2018-06-03T01:03:05.630Z,68.20
2018-06-03T01:04:05.655Z,68.10
2018-06-03T01:05:05.681Z,70.20
2018-06-03T01:06:05.710Z,71.90
2018-06-03T01:07:05.733Z,68.30
2018-06-03T01:08:05.759Z,62.50
2018-06-03T01:09:05.772Z,64.90
2018-06-03T01:10:05.797Z,66.00
2018-06-03T01:11:05.824Z,70.50
2018-06-03T01:12:05.849Z,61.00
2018-06-03T01:13:05.889Z,65.40
2018-06-03T01:14:05.900Z,65.60
2018-06-03T01:15:05.920Z,65.40
2018-06-03T01:16:05.940Z,65.50
2018-06-03T01:17:05.966Z,64.20
2018-06-03T01:18:05.991Z,72.70
2018-06-03T01:19:06.019Z,66.00
2018-06-03T01:20:06.045Z,68.70
2018-06-03T01:21:06.070Z,67.00
2018-06-03T01:22:06.090Z,71.50
2018-06-03T01:23:06.109Z,66.70
2018-06-03T01:24:06.135Z,73.50
2018-06-03T01:25:06.162Z,69.90
2018-06-03T01:26:06.187Z,68.80
2018-06-03T01:27:06.213Z,71.60
2018-06-03T01:28:06.230Z,69.90
2018-06-03T01:29:06.253Z,68.80
2018-06-03T01:30:06.278Z,67.60
2018-06-03T01:31:06.304Z,68.80
2018-06-03T01:32:06.329Z,71.50
2018-06-03T01:33:06.359Z,66.60
2018-06-03T01:34:06.370Z,70.90
2018-06-03T01:35:06.408Z,66.00
2018-06-03T01:36:06.420Z,74.50
2018-06-03T01:37:06.447Z,70.50
2018-06-03T01:38:06.473Z,68.40
2018-06-03T01:39:06.499Z,71.70
2018-06-03T01:40:06.524Z,65.60
2018-06-03T01:41:06.540Z,64.30
2018-06-03T01:42:06.565Z,65.00
2018-06-03T01:43:06.592Z,65.60
2018-06-03T01:44:06.616Z,66.20
2018-06-03T01:45:06.643Z,66.10
2018-06-03T01:46:06.669Z,70.80
2018-06-03T01:47:06.682Z,61.30
2018-06-03T01:48:06.707Z,62.30
2018-06-03T01:49:06.734Z,68.50
2018-06-03T01:50:06.775Z,67.20
2018-06-03T01:51:06.790Z,58.40
2018-06-03T01:52:06.812Z,59.60
2018-06-03T01:53:06.837Z,60.00
2018-06-03T01:54:06.851Z,62.00
2018-06-03T01:55:06.877Z,61.40
2018-06-03T01:56:06.903Z,58.60
2018-06-03T01:57:06.929Z,60.20
2018-06-03T01:58:06.955Z,58.10
2018-06-03T01:59:06.981Z,63.80
2018-06-03T02:00:07.007Z,61.20
2018-06-03T02:01:07.019Z,58.70
2018-06-03T02:02:07.046Z,61.70
2018-06-03T02:03:07.071Z,64.70
2018-06-03T02:04:07.097Z,57.90
2018-06-03T02:05:07.124Z,61.40
2018-06-03T02:06:07.149Z,58.60
2018-06-03T02:07:07.164Z,61.40
2018-06-03T02:08:07.191Z,57.90
2018-06-03T02:09:07.216Z,63.70
2018-06-03T02:10:07.241Z,67.40
2018-06-03T02:11:07.270Z,59.10
2018-06-03T02:12:07.296Z,58.60
2018-06-03T02:13:07.319Z,60.10
2018-06-03T02:14:07.331Z,56.60
2018-06-03T02:15:07.357Z,62.10
2018-06-03T02:16:07.386Z,63.10
2018-06-03T02:17:07.410Z,59.00
2018-06-03T02:18:07.435Z,61.70
2018-06-03T02:19:07.474Z,62.60
2018-06-03T02:20:07.489Z,58.40
2018-06-03T02:21:07.501Z,56.30
2018-06-03T02:22:07.527Z,56.00
2018-06-03T02:23:07.553Z,56.30
2018-06-03T02:24:07.578Z,56.30
2018-06-03T02:25:07.606Z,55.80
2018-06-03T02:26:07.631Z,58.10
2018-06-03T02:27:07.644Z,54.70
2018-06-03T02:28:07.669Z,57.90
2018-06-03T02:29:07.699Z,58.10
2018-06-03T02:30:07.733Z,58.90
2018-06-03T02:31:07.749Z,59.50
2018-06-03T02:32:07.773Z,52.50
2018-06-03T02:33:07.801Z,55.40
2018-06-03T02:34:07.825Z,55.20
2018-06-03T02:35:07.843Z,55.40
2018-06-03T02:36:07.867Z,55.00
2018-06-03T02:37:07.892Z,52.50
2018-06-03T02:38:07.916Z,58.60
2018-06-03T02:39:07.951Z,53.10
2018-06-03T02:40:07.968Z,54.40
2018-06-03T02:41:07.982Z,50.00
2018-06-03T02:42:08.008Z,49.00
2018-06-03T02:43:08.035Z,50.40
2018-06-03T02:44:08.059Z,48.70
2018-06-03T02:45:08.085Z,49.60
2018-06-03T02:46:08.111Z,51.20
2018-06-03T02:47:08.126Z,53.10
2018-06-03T02:48:08.150Z,52.10
2018-06-03T02:49:08.178Z,50.80
2018-06-03T02:50:08.203Z,48.70
2018-06-03T02:51:08.229Z,53.50
2018-06-03T02:52:08.255Z,50.60
2018-06-03T02:53:08.280Z,50.30
2018-06-03T02:54:08.306Z,45.30
2018-06-03T02:55:08.320Z,44.70
2018-06-03T02:56:08.347Z,48.60
2018-06-03T02:57:08.371Z,47.40
2018-06-03T02:58:08.398Z,51.10
2018-06-03T02:59:08.426Z,46.20
2018-06-03T03:00:08.450Z,44.00
2018-06-03T03:01:08.462Z,44.00
2018-06-03T03:02:08.501Z,44.60
2018-06-03T03:03:08.514Z,46.60
2018-06-03T03:04:08.541Z,45.10
2018-06-03T03:05:08.567Z,48.30
2018-06-03T03:06:08.594Z,46.00
2018-06-03T03:07:08.607Z,48.40
2018-06-03T03:08:08.631Z,46.60
2018-06-03T03:09:08.657Z,45.40
2018-06-03T03:10:08.684Z,46.90
2018-06-03T03:11:08.715Z,50.10
2018-06-03T03:12:08.738Z,47.10
2018-06-03T03:13:08.761Z,46.20
2018-06-03T03:14:08.775Z,47.30
2018-06-03T03:15:08.801Z,47.60
2018-06-03T03:16:08.826Z,48.50
2018-06-03T03:17:08.853Z,48.60
2018-06-03T03:18:08.879Z,46.60
2018-06-03T03:19:08.903Z,43.40
2018-06-03T03:20:08.931Z,46.90
2018-06-03T03:21:08.943Z,44.50
2018-06-03T03:22:08.983Z,45.40
2018-06-03T03:23:08.995Z,45.30
2018-06-03T03:24:09.022Z,47.40
2018-06-03T03:25:09.047Z,46.60
2018-06-03T03:26:09.073Z,43.90
2018-06-03T03:27:09.087Z,44.30
2018-06-03T03:28:09.113Z,43.00
2018-06-03T03:29:09.139Z,48.80
2018-06-03T03:30:09.165Z,43.70
2018-06-03T03:31:09.191Z,46.80
2018-06-03T03:32:09.216Z,46.40
2018-06-03T03:33:09.245Z,43.20
2018-06-03T03:34:09.257Z,48.30
2018-06-03T03:35:09.281Z,46.70
2018-06-03T03:36:09.311Z,44.90
2018-06-03T03:37:09.332Z,45.30
2018-06-03T03:38:09.372Z,44.70
2018-06-03T03:39:09.384Z,46.40
2018-06-03T03:40:09.400Z,44.90
2018-06-03T03:41:09.424Z,48.00
2018-06-03T03:42:09.454Z,44.90
2018-06-03T03:43:09.477Z,45.20
2018-06-03T03:44:09.503Z,39.70
2018-06-03T03:45:09.531Z,44.20
2018-06-03T03:46:09.542Z,47.30
2018-06-03T03:47:09.567Z,43.60
2018-06-03T03:48:09.593Z,45.30
2018-06-03T03:49:09.621Z,46.10
2018-06-03T03:50:09.646Z,42.10
2018-06-03T03:51:09.671Z,45.70
2018-06-03T03:52:09.700Z,44.70
2018-06-03T03:53:09.711Z,38.70
2018-06-03T03:54:09.737Z,41.70
2018-06-03T03:55:09.763Z,43.20
2018-06-03T03:56:09.789Z,42.00
2018-06-03T03:57:09.814Z,43.60
2018-06-03T03:58:09.841Z,44.10
2018-06-03T03:59:09.867Z,43.50
2018-06-03T04:00:09.892Z,44.20
2018-06-03T04:01:09.905Z,42.30
2018-06-03T04:02:09.931Z,42.10
2018-06-03T04:03:09.956Z,44.90
2018-06-03T04:04:09.984Z,42.60
2018-06-03T04:05:10.008Z,43.30
2018-06-03T04:06:10.025Z,49.40
2018-06-03T04:07:10.049Z,49.40
2018-06-03T04:08:10.076Z,49.20
2018-06-03T04:09:10.101Z,44.80
2018-06-03T04:10:10.127Z,47.80
2018-06-03T04:11:10.152Z,45.70
2018-06-03T04:12:10.178Z,48.00
2018-06-03T04:13:10.243Z,50.90
2018-06-03T04:14:10.218Z,41.50
2018-06-03T04:15:10.243Z,44.60
2018-06-03T04:16:10.268Z,45.20
2018-06-03T04:17:10.297Z,43.60
2018-06-03T04:18:10.320Z,46.60
2018-06-03T04:19:10.346Z,45.10
2018-06-03T04:20:10.373Z,44.00
2018-06-03T04:21:10.386Z,42.20
2018-06-03T04:22:10.433Z,46.30
2018-06-03T04:23:10.439Z,46.40
2018-06-03T04:24:10.464Z,42.40
2018-06-03T04:25:10.491Z,47.00
2018-06-03T04:26:10.516Z,43.40
2018-06-03T04:27:10.530Z,42.00
2018-06-03T04:28:10.556Z,45.20
2018-06-03T04:29:10.582Z,44.30
2018-06-03T04:30:10.607Z,47.10
2018-06-03T04:31:10.632Z,46.00
2018-06-03T04:32:10.658Z,49.20
2018-06-03T04:33:10.684Z,47.20
2018-06-03T04:34:10.710Z,50.00
2018-06-03T04:35:10.724Z,46.00
2018-06-03T04:36:10.753Z,47.10
2018-06-03T04:37:10.777Z,48.80
2018-06-03T04:38:10.804Z,47.10
2018-06-03T04:39:10.828Z,47.90
2018-06-03T04:40:10.854Z,47.60
2018-06-03T04:41:10.880Z,49.40
2018-06-03T04:42:10.893Z,51.40
2018-06-03T04:43:10.920Z,48.30
2018-06-03T04:44:10.960Z,55.70
2018-06-03T04:45:10.971Z,49.50
2018-06-03T04:46:10.997Z,56.90
2018-06-03T04:47:11.023Z,57.90
2018-06-03T04:48:11.051Z,59.80
2018-06-03T04:49:11.064Z,54.10
2018-06-03T04:50:11.090Z,53.90
2018-06-03T04:51:11.115Z,48.00
2018-06-03T04:52:11.142Z,53.80
2018-06-03T04:53:11.166Z,54.20
2018-06-03T04:54:11.192Z,52.90
2018-06-03T04:55:11.218Z,53.20
2018-06-03T04:56:11.232Z,56.20
2018-06-03T04:57:11.261Z,56.30
2018-06-03T04:58:11.283Z,54.60
2018-06-03T04:59:11.610Z,57.30
2018-06-03T05:00:11.340Z,57.80
2018-06-03T05:01:11.360Z,56.90
2018-06-03T05:02:11.386Z,55.50
2018-06-03T05:03:11.401Z,51.40
2018-06-03T05:04:11.436Z,62.50
2018-06-03T05:05:11.452Z,61.60
2018-06-03T05:06:11.479Z,55.50
2018-06-03T05:07:11.505Z,54.20
2018-06-03T05:08:11.531Z,55.20
2018-06-03T05:09:11.557Z,55.40
2018-06-03T05:10:11.572Z,55.30
2018-06-03T05:11:11.595Z,55.70
2018-06-03T05:12:11.633Z,58.70
2018-06-03T05:13:11.647Z,60.50
2018-06-03T05:14:11.675Z,59.50
2018-06-03T05:15:11.698Z,57.30
2018-06-03T05:16:11.724Z,57.10
2018-06-03T05:17:11.750Z,60.40
2018-06-03T05:18:11.767Z,63.70
2018-06-03T05:19:11.791Z,54.50
2018-06-03T05:20:11.820Z,61.70
2018-06-03T05:21:11.845Z,58.40
2018-06-03T05:22:11.868Z,60.30
2018-06-03T05:23:11.895Z,55.20
2018-06-03T05:24:11.908Z,58.00
2018-06-03T05:25:11.934Z,60.60
2018-06-03T05:26:11.959Z,59.60
2018-06-03T05:27:11.985Z,59.10
2018-06-03T05:28:12.023Z,60.20
2018-06-03T05:29:12.036Z,59.40
2018-06-03T05:30:12.064Z,59.60
2018-06-03T05:31:12.088Z,58.90
2018-06-03T05:32:12.102Z,60.80
2018-06-03T05:33:12.129Z,57.40
2018-06-03T05:34:12.155Z,63.00
2018-06-03T05:35:12.180Z,58.60
2018-06-03T05:36:12.208Z,58.40
2018-06-03T05:37:12.232Z,57.80
2018-06-03T05:38:12.258Z,59.70
2018-06-03T05:39:12.271Z,56.70
2018-06-03T05:40:12.296Z,56.90
2018-06-03T05:41:12.323Z,56.00
2018-06-03T05:42:12.349Z,59.30
2018-06-03T05:43:12.378Z,60.00
2018-06-03T05:44:12.402Z,54.30
2018-06-03T05:45:12.474Z,56.00
2018-06-03T05:46:12.443Z,59.40
2018-06-03T05:47:12.466Z,58.00
2018-06-03T05:48:12.498Z,55.40
2018-06-03T05:49:12.519Z,58.20
2018-06-03T05:50:12.544Z,54.40
2018-06-03T05:51:12.571Z,49.30
2018-06-03T05:52:12.597Z,54.80
2018-06-03T05:53:12.623Z,53.30
2018-06-03T05:54:12.636Z,49.90
2018-06-03T05:55:12.662Z,50.80
2018-06-03T05:56:12.686Z,58.10
2018-06-03T05:57:12.713Z,48.80
2018-06-03T05:58:12.740Z,52.40
2018-06-03T05:59:12.764Z,50.00
2018-06-03T06:00:12.791Z,53.60
2018-06-03T06:01:12.817Z,48.70
2018-06-03T06:02:12.831Z,49.80
2018-06-03T06:03:12.856Z,52.40
2018-06-03T06:04:12.884Z,46.50
2018-06-03T06:05:12.908Z,52.80
2018-06-03T06:06:12.935Z,47.20
2018-06-03T06:07:12.964Z,52.20
2018-06-03T06:08:12.987Z,49.20
2018-06-03T06:09:13.012Z,53.80
2018-06-03T06:10:13.025Z,46.30
2018-06-03T06:11:13.051Z,49.80
2018-06-03T06:12:13.091Z,44.10
2018-06-03T06:13:13.116Z,45.80
2018-06-03T06:14:13.128Z,55.00
2018-06-03T06:15:13.154Z,45.00
2018-06-03T06:16:13.180Z,49.20
2018-06-03T06:17:13.209Z,50.50
2018-06-03T06:18:13.225Z,50.50
2018-06-03T06:19:13.246Z,45.30
2018-06-03T06:20:13.307Z,47.40
2018-06-03T06:21:13.302Z,45.60
2018-06-03T06:22:13.324Z,51.40
2018-06-03T06:23:13.351Z,51.60
2018-06-03T06:24:13.375Z,51.90
2018-06-03T06:25:13.402Z,46.50
2018-06-03T06:26:13.416Z,52.20
2018-06-03T06:27:13.440Z,45.50
2018-06-03T06:28:13.479Z,53.90
2018-06-03T06:29:13.488Z,52.70
2018-06-03T06:30:13.515Z,54.80
2018-06-03T06:31:13.541Z,52.00
2018-06-03T06:32:13.568Z,55.70
2018-06-03T06:33:13.593Z,58.60
2018-06-03T06:34:13.625Z,56.00
2018-06-03T06:35:13.635Z,54.80
2018-06-03T06:36:13.661Z,51.90
2018-06-03T06:37:13.685Z,56.60
2018-06-03T06:38:13.712Z,53.80
2018-06-03T06:39:13.737Z,53.80
2018-06-03T06:40:13.766Z,56.30
2018-06-03T06:41:13.790Z,59.90
2018-06-03T06:42:13.816Z,54.20
2018-06-03T06:43:13.842Z,56.00
2018-06-03T06:44:13.857Z,52.00
2018-06-03T06:45:13.881Z,49.60
2018-06-03T06:46:13.907Z,56.60
2018-06-03T06:47:13.934Z,54.20
2018-06-03T06:48:13.963Z,56.50
2018-06-03T06:49:13.986Z,52.10
2018-06-03T06:50:14.026Z,51.70
2018-06-03T06:51:14.038Z,51.20
2018-06-03T06:52:14.065Z,52.70
2018-06-03T06:53:14.091Z,54.10
2018-06-03T06:54:14.105Z,53.60
2018-06-03T06:55:14.131Z,53.50
2018-06-03T06:56:14.157Z,56.30
2018-06-03T06:57:14.183Z,54.40
2018-06-03T06:58:14.211Z,54.30
2018-06-03T06:59:14.236Z,55.50
2018-06-03T07:00:14.289Z,55.20
2018-06-03T07:01:14.291Z,50.50
2018-06-03T07:02:14.302Z,52.90
2018-06-03T07:03:14.326Z,50.80
2018-06-03T07:04:14.354Z,58.80
2018-06-03T07:05:14.381Z,62.70
2018-06-03T07:06:14.407Z,58.80
2018-06-03T07:07:14.431Z,58.90
2018-06-03T07:08:14.459Z,58.00
2018-06-03T07:09:14.483Z,61.00
2018-06-03T07:10:14.510Z,59.40
2018-06-03T07:11:14.537Z,60.40
2018-06-03T07:12:14.550Z,58.80
2018-06-03T07:13:14.639Z,63.00
2018-06-03T07:14:14.602Z,65.20
2018-06-03T07:15:14.631Z,66.40
2018-06-03T07:16:14.655Z,67.60
2018-06-03T07:17:14.680Z,68.50
2018-06-03T07:18:14.707Z,63.50
2018-06-03T07:19:14.740Z,69.60
2018-06-03T07:20:14.761Z,73.70
2018-06-03T07:21:14.785Z,75.40
2018-06-03T07:22:14.802Z,66.60
2018-06-03T07:23:14.844Z,72.80
2018-06-03T07:24:14.850Z,76.90
2018-06-03T07:25:14.879Z,71.80
2018-06-03T07:26:14.901Z,68.00
2018-06-03T07:27:14.941Z,75.30
2018-06-03T07:28:14.955Z,71.50
2018-06-03T07:29:14.980Z,68.80
2018-06-03T07:30:15.007Z,73.30
2018-06-03T07:31:15.033Z,77.80
2018-06-03T07:32:15.046Z,73.80
2018-06-03T07:33:15.074Z,69.40
2018-06-03T07:34:15.102Z,72.20
2018-06-03T07:35:15.125Z,75.50
2018-06-03T07:36:15.152Z,80.50
2018-06-03T07:37:15.177Z,77.00
2018-06-03T07:38:15.207Z,71.10
2018-06-03T07:39:15.229Z,69.00
2018-06-03T07:40:15.255Z,75.50
2018-06-03T07:41:15.281Z,78.00
2018-06-03T07:42:15.295Z,78.20
2018-06-03T07:43:15.322Z,75.30
2018-06-03T07:44:15.346Z,72.90
2018-06-03T07:45:15.372Z,70.90
2018-06-03T07:46:15.398Z,69.40
2018-06-03T07:47:15.425Z,74.10
2018-06-03T07:48:15.450Z,70.10
2018-06-03T07:49:15.490Z,68.10
2018-06-03T07:50:15.515Z,71.80
2018-06-03T07:51:15.528Z,70.50
2018-06-03T07:52:15.555Z,73.40
2018-06-03T07:53:15.574Z,66.20
2018-06-03T07:54:15.595Z,68.90
2018-06-03T07:55:15.622Z,65.50
2018-06-03T07:56:15.645Z,62.10
2018-06-03T07:57:15.717Z,70.30
2018-06-03T07:58:15.695Z,68.50
2018-06-03T07:59:15.721Z,67.50
2018-06-03T08:00:15.747Z,66.00
2018-06-03T08:01:15.772Z,69.60
2018-06-03T08:02:15.786Z,68.30
2018-06-03T08:03:15.812Z,64.90
2018-06-03T08:04:15.836Z,70.60
2018-06-03T08:05:15.862Z,68.70
2018-06-03T08:06:15.891Z,67.90
2018-06-03T08:07:15.915Z,64.60
2018-06-03T08:08:15.942Z,65.40
2018-06-03T08:09:15.968Z,64.40
2018-06-03T08:10:16.004Z,62.90
2018-06-03T08:11:16.017Z,55.60
2018-06-03T08:12:16.033Z,55.00
2018-06-03T08:13:16.058Z,63.40
2018-06-03T08:14:16.084Z,67.00
2018-06-03T08:15:16.112Z,54.70
2018-06-03T08:16:16.136Z,59.30
2018-06-03T08:17:16.161Z,52.20
2018-06-03T08:18:16.187Z,54.00
2018-06-03T08:19:16.213Z,51.60
2018-06-03T08:20:16.239Z,54.50
2018-06-03T08:21:16.265Z,57.70
2018-06-03T08:22:16.278Z,52.40
2018-06-03T08:23:16.304Z,53.30
2018-06-03T08:24:16.330Z,54.90
2018-06-03T08:25:16.355Z,55.90
2018-06-03T08:26:16.394Z,55.20
2018-06-03T08:27:16.409Z,55.80
2018-06-03T08:28:16.432Z,58.90
2018-06-03T08:29:16.458Z,56.20
2018-06-03T08:30:16.484Z,60.70
2018-06-03T08:31:16.497Z,56.90
2018-06-03T08:32:16.524Z,61.60
2018-06-03T08:33:16.549Z,59.30
2018-06-03T08:34:16.576Z,57.70
2018-06-03T08:35:16.600Z,66.70
2018-06-03T08:36:16.626Z,59.70
2018-06-03T08:37:16.653Z,58.20
2018-06-03T08:38:16.678Z,63.50
2018-06-03T08:39:16.751Z,67.20
2018-06-03T08:40:16.719Z,61.00
2018-06-03T08:41:16.743Z,68.10
2018-06-03T08:42:16.768Z,71.10
2018-06-03T08:43:16.798Z,66.10
2018-06-03T08:44:16.821Z,60.50
2018-06-03T08:45:16.846Z,68.30
2018-06-03T08:46:16.871Z,64.80
2018-06-03T08:47:16.898Z,58.00
2018-06-03T08:48:16.923Z,61.60
2018-06-03T08:49:16.949Z,60.20
2018-06-03T08:50:16.977Z,60.90
2018-06-03T08:51:16.989Z,59.70
2018-06-03T08:52:17.015Z,61.50
2018-06-03T08:53:17.040Z,58.90
2018-06-03T08:54:17.067Z,59.90
2018-06-03T08:55:17.093Z,56.40
2018-06-03T08:56:17.119Z,59.20
2018-06-03T08:57:17.145Z,59.80
2018-06-03T08:58:17.171Z,59.90
2018-06-03T08:59:17.196Z,56.60
2018-06-03T09:00:17.222Z,59.10
2018-06-03T09:01:17.240Z,64.30
2018-06-03T09:02:17.261Z,61.40
2018-06-03T09:03:17.287Z,61.20
2018-06-03T09:04:17.312Z,59.90
2018-06-03T09:05:17.341Z,59.30
2018-06-03T09:06:17.365Z,61.30
2018-06-03T09:07:17.392Z,54.10
2018-06-03T09:08:17.417Z,49.90
2018-06-03T09:09:17.454Z,52.70
2018-06-03T09:10:17.468Z,51.70
2018-06-03T09:11:17.493Z,54.70
2018-06-03T09:12:17.519Z,59.80
2018-06-03T09:13:17.548Z,58.10
2018-06-03T09:14:17.571Z,57.20
2018-06-03T09:15:17.614Z,55.10
2018-06-03T09:16:17.624Z,55.10
2018-06-03T09:17:17.651Z,54.80
2018-06-03T09:18:17.664Z,59.60
2018-06-03T09:19:17.690Z,55.20
2018-06-03T09:20:17.715Z,53.20
2018-06-03T09:21:17.741Z,50.20
2018-06-03T09:22:17.767Z,49.30
2018-06-03T09:23:17.792Z,54.70
2018-06-03T09:24:17.823Z,50.60
2018-06-03T09:25:17.845Z,55.20
2018-06-03T09:26:17.871Z,50.20
2018-06-03T09:27:17.897Z,52.50
2018-06-03T09:28:17.926Z,51.50
2018-06-03T09:29:17.949Z,46.60
2018-06-03T09:30:17.975Z,47.50
2018-06-03T09:31:18.001Z,51.20
2018-06-03T09:32:18.026Z,52.10
2018-06-03T09:33:18.052Z,48.90
2018-06-03T09:34:18.079Z,49.80
2018-06-03T09:35:18.105Z,49.00
2018-06-03T09:36:18.130Z,46.80
2018-06-03T09:37:18.159Z,45.60
2018-06-03T09:38:18.184Z,49.90
2018-06-03T09:39:18.210Z,43.90
2018-06-03T09:40:18.234Z,43.20
2018-06-03T09:41:18.249Z,47.90
2018-06-03T09:42:18.275Z,45.60
2018-06-03T09:43:18.298Z,48.10
2018-06-03T09:44:18.372Z,50.80
2018-06-03T09:45:18.350Z,50.30
2018-06-03T09:46:18.380Z,51.50
2018-06-03T09:47:18.402Z,50.20
2018-06-03T09:48:18.428Z,52.60
2018-06-03T09:49:18.457Z,49.80
2018-06-03T09:50:18.480Z,47.00
2018-06-03T09:51:18.518Z,47.50
2018-06-03T09:52:18.534Z,47.80
2018-06-03T09:53:18.590Z,47.80
2018-06-03T09:54:18.585Z,48.00
2018-06-03T09:55:18.610Z,50.20
2018-06-03T09:56:18.635Z,44.90
2018-06-03T09:57:18.674Z,44.60
2018-06-03T09:58:18.687Z,49.20
2018-06-03T09:59:18.713Z,47.70
2018-06-03T10:00:18.791Z,50.10
2018-06-03T10:01:18.765Z,48.30
2018-06-03T10:02:18.791Z,52.70
2018-06-03T10:03:18.818Z,47.30
2018-06-03T10:04:18.849Z,41.70
2018-06-03T10:05:18.869Z,46.50
2018-06-03T10:06:18.897Z,44.40
2018-06-03T10:07:18.925Z,43.50
2018-06-03T10:08:18.948Z,40.90
2018-06-03T10:09:18.972Z,41.10
2018-06-03T10:10:19.033Z,42.60
2018-06-03T10:11:19.028Z,41.70
2018-06-03T10:12:19.067Z,42.50
2018-06-03T10:13:19.076Z,39.70
2018-06-03T10:14:19.103Z,38.10
2018-06-03T10:15:19.128Z,41.30
2018-06-03T10:16:19.155Z,36.50
2018-06-03T10:17:19.179Z,37.40
2018-06-03T10:18:19.208Z,39.70
2018-06-03T10:19:19.237Z,36.00
2018-06-03T10:20:19.260Z,38.50
2018-06-03T10:21:19.297Z,37.80
2018-06-03T10:22:19.312Z,38.60
2018-06-03T10:23:19.349Z,37.30
2018-06-03T10:24:19.375Z,37.50
2018-06-03T10:25:19.401Z,37.60
2018-06-03T10:26:19.427Z,40.10
2018-06-03T10:27:19.453Z,34.80
2018-06-03T10:28:19.479Z,38.60
2018-06-03T10:29:19.505Z,38.30
2018-06-03T10:30:19.532Z,37.00
2018-06-03T10:31:19.556Z,41.00
2018-06-03T10:32:19.587Z,36.30
2018-06-03T10:33:19.608Z,43.90
2018-06-03T10:34:19.635Z,42.60
2018-06-03T10:35:19.660Z,38.20
2018-06-03T10:36:19.686Z,36.80
2018-06-03T10:37:19.712Z,42.90
2018-06-03T10:38:19.738Z,38.50
2018-06-03T10:39:19.763Z,39.90
2018-06-03T10:40:19.789Z,38.50
2018-06-03T10:41:19.816Z,36.00
2018-06-03T10:42:19.844Z,38.50
2018-06-03T10:43:19.879Z,41.20
2018-06-03T10:44:19.904Z,45.70
2018-06-03T10:45:19.934Z,38.00
2018-06-03T10:46:19.956Z,36.90
2018-06-03T10:47:19.983Z,35.80
2018-06-03T10:48:20.010Z,34.70
2018-06-03T10:49:20.042Z,37.10
2018-06-03T10:50:20.410Z,35.50
2018-06-03T10:51:20.087Z,34.80
2018-06-03T10:52:20.157Z,33.50
2018-06-03T10:53:20.139Z,34.00
2018-06-03T10:54:20.225Z,36.60
2018-06-03T10:55:20.190Z,32.40
2018-06-03T10:56:20.218Z,34.80
2018-06-03T10:57:20.256Z,33.80
2018-06-03T10:58:20.281Z,30.90
2018-06-03T10:59:20.308Z,31.90
2018-06-03T11:00:20.335Z,32.20
2018-06-03T11:01:20.359Z,35.00
2018-06-03T11:02:20.385Z,31.50
2018-06-03T11:03:20.425Z,32.10
2018-06-03T11:04:20.480Z,36.20
2018-06-03T11:05:20.475Z,35.70
2018-06-03T11:06:20.501Z,37.60
2018-06-03T11:07:20.527Z,33.50
2018-06-03T11:08:20.552Z,32.80
2018-06-03T11:09:20.578Z,32.60
2018-06-03T11:10:20.617Z,32.00
2018-06-03T11:11:20.633Z,34.80
2018-06-03T11:12:20.670Z,32.10
2018-06-03T11:13:20.695Z,31.40
2018-06-03T11:14:20.721Z,29.70
2018-06-03T11:15:20.747Z,35.40
2018-06-03T11:16:20.773Z,30.90
2018-06-03T11:17:20.799Z,34.30
2018-06-03T11:18:20.825Z,29.80
2018-06-03T11:19:20.851Z,28.30
2018-06-03T11:20:20.877Z,27.80
2018-06-03T11:21:20.914Z,25.80
2018-06-03T11:22:20.944Z,28.30
2018-06-03T11:23:20.969Z,28.60
2018-06-03T11:24:21.006Z,28.20
2018-06-03T11:25:21.019Z,26.60
2018-06-03T11:26:21.044Z,24.60
2018-06-03T11:27:21.070Z,23.40
2018-06-03T11:28:21.096Z,25.50
2018-06-03T11:29:21.130Z,22.20
2018-06-03T11:30:21.162Z,20.60
2018-06-03T11:31:21.188Z,20.70
2018-06-03T11:32:21.214Z,19.60
2018-06-03T11:33:21.240Z,22.10
2018-06-03T11:34:21.265Z,21.60
2018-06-03T11:35:21.290Z,21.50
2018-06-03T11:36:21.317Z,21.40
2018-06-03T11:37:21.355Z,22.00
2018-06-03T11:38:21.398Z,19.40
2018-06-03T11:39:21.407Z,18.10
2018-06-03T11:40:21.433Z,19.60
2018-06-03T11:41:21.458Z,18.50
2018-06-03T11:42:21.484Z,17.80
2018-06-03T11:43:21.512Z,17.80
2018-06-03T11:44:21.537Z,17.40
2018-06-03T11:45:21.578Z,17.10
2018-06-03T11:46:21.602Z,17.00
2018-06-03T11:47:21.628Z,18.60
2018-06-03T11:48:21.653Z,18.00
2018-06-03T11:49:21.679Z,16.00
2018-06-03T11:50:21.712Z,13.10
2018-06-03T11:51:21.735Z,16.40
2018-06-03T11:52:21.758Z,14.00
2018-06-03T11:53:21.795Z,14.10
2018-06-03T11:54:21.822Z,11.90
2018-06-03T11:55:21.848Z,11.10
2018-06-03T11:56:21.872Z,12.20
2018-06-03T11:57:21.900Z,9.60
2018-06-03T11:58:21.925Z,9.70
2018-06-03T11:59:21.964Z,9.50
2018-06-03T12:00:21.991Z,9.80
2018-06-03T12:01:22.015Z,8.70
2018-06-03T12:02:22.041Z,11.50
2018-06-03T12:03:22.079Z,7.90
2018-06-03T12:04:22.321Z,6.80
2018-06-03T12:05:22.132Z,9.60
2018-06-03T12:06:22.170Z,9.70
2018-06-03T12:07:22.200Z,9.80
2018-06-03T12:08:22.222Z,8.50
2018-06-03T12:09:22.248Z,10.40
2018-06-03T12:10:22.273Z,9.30
2018-06-03T12:11:22.311Z,9.40
2018-06-03T12:12:22.338Z,8.70
2018-06-03T12:13:22.364Z,9.20
2018-06-03T12:14:22.402Z,8.40
2018-06-03T12:15:22.435Z,8.60
2018-06-03T12:16:22.454Z,6.80
2018-06-03T12:17:22.493Z,7.70
2018-06-03T12:18:22.517Z,11.40
2018-06-03T12:19:22.544Z,7.50
2018-06-03T12:20:22.569Z,10.70
2018-06-03T12:21:22.609Z,10.40
2018-06-03T12:22:22.635Z,10.50
2018-06-03T12:23:22.667Z,10.30
2018-06-03T12:24:22.687Z,10.90
2018-06-03T12:25:22.724Z,10.80
2018-06-03T12:26:22.750Z,9.50
2018-06-03T12:27:22.776Z,10.20
2018-06-03T12:28:22.877Z,8.30
2018-06-03T12:29:22.842Z,9.90
2018-06-03T12:30:22.868Z,8.70
2018-06-03T12:31:22.893Z,11.90
2018-06-03T12:32:22.918Z,10.20
2018-06-03T12:33:22.957Z,9.60
2018-06-03T12:34:22.984Z,9.50
2018-06-03T12:35:23.009Z,9.00
2018-06-03T12:36:23.048Z,8.50
2018-06-03T12:37:23.076Z,9.40
2018-06-03T12:38:23.100Z,8.40
2018-06-03T12:39:23.126Z,8.20
2018-06-03T12:40:23.155Z,8.30
2018-06-03T12:41:23.190Z,9.90
2018-06-03T12:42:23.215Z,9.80
2018-06-03T12:43:23.243Z,10.90
2018-06-03T12:44:23.281Z,8.90
2018-06-03T12:45:23.305Z,8.80
2018-06-03T12:46:23.332Z,10.60
2018-06-03T12:47:23.358Z,11.20
2018-06-03T12:48:23.396Z,9.70
2018-06-03T12:49:23.422Z,9.40
2018-06-03T12:50:23.463Z,11.10
2018-06-03T12:51:23.475Z,10.80
2018-06-03T12:52:23.513Z,10.30
2018-06-03T12:53:23.543Z,9.50